Time;durP1;ratioP1;P1;durP2;ratioP2;P2;SDS_P1;SDS_P2;PMS_P1;PMS_P2;Temp;Humidity;BMP_temperature;BMP_pressure;BME280_temperature;BME280_humidity;BME280_pressure;Samples;Min_cycle;Max_cycle;Signal;HPM_P1;HPM_P2
2021/11/16 00:01:55;;;;;;;54.53;22.03;;;8.10;79.50;;;;;;5085482;28;20180;-81
2021/11/16 00:04:21;;;;;;;53.50;25.07;;;8.20;79.60;;;;;;5089534;28;20227;-81
2021/11/16 00:06:52;;;;;;;47.83;22.53;;;8.40;79.30;;;;;;5104781;28;20418;-81
2021/11/16 00:09:17;;;;;;;56.88;26.02;;;8.50;78.90;;;;;;5104898;28;20469;-81
2021/11/16 00:11:43;;;;;;;59.78;23.33;;;8.40;78.80;;;;;;5107667;28;20200;-81
2021/11/16 00:14:09;;;;;;;55.47;23.27;;;8.30;78.60;;;;;;5098180;28;20208;-81
2021/11/16 00:16:37;;;;;;;50.95;24.90;;;8.40;78.00;;;;;;5104822;28;20676;-81
2021/11/16 00:19:07;;;;;;;56.47;23.00;;;8.40;77.20;;;;;;5084528;28;20207;-81
2021/11/16 00:21:33;;;;;;;48.70;22.73;;;8.20;77.30;;;;;;5090150;28;20168;-81
2021/11/16 00:24:02;;;;;;;56.83;20.95;;;8.40;77.10;;;;;;5084139;28;20268;-80
2021/11/16 00:26:28;;;;;;;59.25;23.83;;;8.40;76.70;;;;;;5084357;28;20187;-81
2021/11/16 00:28:54;;;;;;;51.30;20.30;;;8.40;76.40;;;;;;5081794;28;20231;-80
2021/11/16 00:31:21;;;;;;;56.35;21.95;;;8.40;76.40;;;;;;5081254;28;20196;-80
2021/11/16 00:33:47;;;;;;;52.85;21.30;;;8.50;76.50;;;;;;5082503;28;20200;-80
2021/11/16 00:36:14;;;;;;;58.13;23.10;;;8.30;76.70;;;;;;5083201;28;20181;-80
2021/11/16 00:38:40;;;;;;;49.88;21.98;;;8.10;77.00;;;;;;5109056;28;20240;-81
2021/11/16 00:41:07;;;;;;;54.10;23.70;;;8.10;76.70;;;;;;5100235;28;20248;-80
2021/11/16 00:43:33;;;;;;;51.80;23.25;;;8.10;76.00;;;;;;5099680;28;20197;-81
2021/11/16 00:45:59;;;;;;;51.50;23.33;;;8.30;75.70;;;;;;5102648;28;20235;-81
2021/11/16 00:48:25;;;;;;;57.57;22.50;;;8.30;75.40;;;;;;5118451;28;20223;-81
2021/11/16 00:50:58;;;;;;;48.03;21.95;;;8.10;75.60;;;;;;5108455;28;20231;-80
2021/11/16 00:53:29;;;;;;;58.60;21.75;;;8.20;76.00;;;;;;5098348;28;20165;-82
2021/11/16 00:55:56;;;;;;;48.33;23.90;;;8.40;76.10;;;;;;5098251;28;20195;-81
2021/11/16 00:58:22;;;;;;;60.45;23.98;;;8.30;76.20;;;;;;5097531;28;20187;-82
2021/11/16 01:00:48;;;;;;;50.47;22.88;;;8.20;76.10;;;;;;5089407;28;20180;-81
2021/11/16 01:03:15;;;;;;;50.15;22.30;;;8.20;76.10;;;;;;5077034;28;20188;-81
2021/11/16 01:05:41;;;;;;;46.60;20.50;;;8.20;76.00;;;;;;5101551;28;20537;-81
2021/11/16 01:08:08;;;;;;;55.72;23.90;;;8.30;76.00;;;;;;5095235;28;20220;-81
2021/11/16 01:10:36;;;;;;;47.42;20.48;;;8.30;75.10;;;;;;5080223;28;20173;-82
2021/11/16 01:13:03;;;;;;;49.85;23.30;;;8.40;75.00;;;;;;5094043;28;20206;-81
2021/11/16 01:15:29;;;;;;;43.05;20.50;;;8.50;75.10;;;;;;5094363;28;20189;-80
2021/11/16 01:17:55;;;;;;;51.00;21.70;;;8.30;75.00;;;;;;5106432;28;20202;-81
2021/11/16 01:20:22;;;;;;;60.87;22.60;;;8.30;75.40;;;;;;5095132;28;20177;-81
2021/11/16 01:22:51;;;;;;;52.10;21.95;;;8.00;75.40;;;;;;5102408;28;20643;-82
2021/11/16 01:25:18;;;;;;;55.75;23.25;;;7.70;76.00;;;;;;5070794;28;20219;-81
2021/11/16 01:27:44;;;;;;;54.40;25.15;;;7.70;76.70;;;;;;5090698;28;20291;-81
2021/11/16 01:30:17;;;;;;;55.37;22.80;;;7.70;77.50;;;;;;5090730;28;20208;-82
2021/11/16 01:32:46;;;;;;;48.35;23.23;;;7.70;77.80;;;;;;5099527;28;20504;-81
2021/11/16 01:35:13;;;;;;;52.00;22.42;;;7.50;78.10;;;;;;5081522;28;20196;-82
2021/11/16 01:37:40;;;;;;;46.40;20.95;;;7.70;78.50;;;;;;5096517;28;20180;-81
2021/11/16 01:40:10;;;;;;;55.63;23.30;;;7.80;78.10;;;;;;5083693;28;20203;-82
2021/11/16 01:42:36;;;;;;;62.00;22.08;;;7.70;78.20;;;;;;5093224;28;20196;-81
2021/11/16 01:45:05;;;;;;;58.60;22.17;;;7.70;78.40;;;;;;5093282;28;20196;-80
2021/11/16 01:47:31;;;;;;;48.63;21.58;;;7.70;78.10;;;;;;5100059;28;20243;-80
2021/11/16 01:49:57;;;;;;;47.90;21.17;;;7.70;77.80;;;;;;5104394;28;20178;-80
2021/11/16 01:52:23;;;;;;;51.20;22.35;;;7.80;77.80;;;;;;5105991;28;20180;-81
2021/11/16 01:54:49;;;;;;;44.83;22.30;;;7.70;77.60;;;;;;5104961;28;20283;-81
2021/11/16 01:57:16;;;;;;;57.90;23.45;;;7.50;77.80;;;;;;5105812;28;20414;-82
2021/11/16 01:59:42;;;;;;;53.70;22.75;;;7.50;78.30;;;;;;5108010;28;20173;-81
2021/11/16 02:02:08;;;;;;;53.42;22.95;;;7.60;78.30;;;;;;5100557;28;20252;-81
2021/11/16 02:04:34;;;;;;;52.05;23.02;;;7.70;78.10;;;;;;5104056;28;20207;-80
2021/11/16 02:07:00;;;;;;;52.70;20.90;;;7.50;78.10;;;;;;5082210;28;20235;-82
2021/11/16 02:09:27;;;;;;;50.17;23.92;;;7.40;78.10;;;;;;5092780;28;20457;-82
2021/11/16 02:11:53;;;;;;;46.40;22.67;;;7.50;78.20;;;;;;5082705;28;20184;-81
2021/11/16 02:14:19;;;;;;;57.17;25.20;;;7.50;78.20;;;;;;5080741;28;20244;-81
2021/11/16 02:16:46;;;;;;;48.20;22.47;;;7.60;78.10;;;;;;5098315;28;20180;-81
2021/11/16 02:19:16;;;;;;;53.38;22.25;;;7.80;78.00;;;;;;5080428;28;20430;-81
2021/11/16 02:21:42;;;;;;;59.97;23.65;;;7.70;77.50;;;;;;5089246;28;20184;-81
2021/11/16 02:24:09;;;;;;;60.65;24.70;;;7.70;77.60;;;;;;5092065;28;20207;-81
2021/11/16 02:26:36;;;;;;;54.80;24.40;;;7.40;77.70;;;;;;5085757;28;20187;-81
2021/11/16 02:29:04;;;;;;;53.67;22.83;;;7.50;78.20;;;;;;5106732;28;20192;-80
2021/11/16 02:31:30;;;;;;;62.13;25.88;;;7.70;78.10;;;;;;5107393;28;20177;-81
2021/11/16 02:33:57;;;;;;;50.47;21.73;;;7.60;77.80;;;;;;5095872;28;20200;-82
2021/11/16 02:36:26;;;;;;;55.10;23.63;;;7.70;78.00;;;;;;5105764;28;20197;-80
2021/11/16 02:38:53;;;;;;;51.25;23.23;;;7.90;77.70;;;;;;5108056;28;20192;-81
2021/11/16 02:41:19;;;;;;;56.90;25.00;;;7.80;77.70;;;;;;5101180;28;20250;-81
2021/11/16 02:43:46;;;;;;;50.72;22.85;;;7.80;77.40;;;;;;5092298;28;20196;-81
2021/11/16 02:46:12;;;;;;;53.75;24.48;;;7.80;77.30;;;;;;5094957;28;20196;-82
2021/11/16 02:48:38;;;;;;;58.08;25.27;;;8.00;77.20;;;;;;5088324;28;20701;-81
2021/11/16 02:51:08;;;;;;;52.45;25.83;;;8.10;77.00;;;;;;5082142;28;20574;-81
2021/11/16 02:53:39;;;;;;;66.32;24.77;;;8.20;76.50;;;;;;5088781;28;20557;-81
2021/11/16 02:56:06;;;;;;;66.85;27.52;;;8.20;76.20;;;;;;5086374;28;20180;-81
2021/11/16 02:58:33;;;;;;;59.50;25.25;;;8.20;76.10;;;;;;5077765;28;20216;-81
2021/11/16 03:01:04;;;;;;;52.28;24.05;;;8.10;75.70;;;;;;5088391;28;20316;-81
2021/11/16 03:03:31;;;;;;;66.68;24.75;;;8.10;76.20;;;;;;5087829;28;20208;-82
2021/11/16 03:05:57;;;;;;;52.58;23.27;;;8.10;76.10;;;;;;5095980;28;20197;-81
2021/11/16 03:08:25;;;;;;;60.08;27.73;;;8.40;75.80;;;;;;5087180;28;20655;-82
2021/11/16 03:10:55;;;;;;;58.03;25.08;;;8.30;75.40;;;;;;5089838;28;20176;-82
2021/11/16 03:13:22;;;;;;;51.85;23.63;;;8.40;75.10;;;;;;5085902;28;20199;-83
2021/11/16 03:15:48;;;;;;;57.95;24.83;;;8.40;75.10;;;;;;5075437;28;20211;-82
2021/11/16 03:18:15;;;;;;;50.55;22.38;;;8.10;75.30;;;;;;5092330;28;20184;-81
2021/11/16 03:20:43;;;;;;;53.00;23.25;;;8.00;75.40;;;;;;5092353;28;20248;-81
2021/11/16 03:23:13;;;;;;;62.28;23.90;;;7.80;75.70;;;;;;5101617;28;20180;-82
2021/11/16 03:25:52;;;;;;;59.70;24.10;;;7.80;76.10;;;;;;5100997;28;20184;-81
2021/11/16 03:28:20;;;;;;;62.25;25.27;;;7.80;76.50;;;;;;5103574;28;20196;-81
2021/11/16 03:30:50;;;;;;;61.97;26.00;;;7.70;76.70;;;;;;5103550;28;20181;-81
2021/11/16 03:33:17;;;;;;;57.65;24.92;;;7.90;76.70;;;;;;5083115;28;20236;-81
2021/11/16 03:35:43;;;;;;;60.95;26.60;;;8.00;76.20;;;;;;5087949;28;20188;-81
2021/11/16 03:38:10;;;;;;;63.33;25.90;;;7.90;76.10;;;;;;5078720;28;20176;-81
2021/11/16 03:40:37;;;;;;;61.50;24.83;;;7.90;76.20;;;;;;5079111;28;20256;-81
2021/11/16 03:43:05;;;;;;;63.65;27.05;;;8.10;76.10;;;;;;5091148;28;20191;-82
2021/11/16 03:45:32;;;;;;;73.40;27.98;;;8.20;75.50;;;;;;5098431;28;20266;-81
2021/11/16 03:48:00;;;;;;;59.42;26.23;;;8.10;75.20;;;;;;5097943;28;20204;-81
2021/11/16 03:50:27;;;;;;;56.10;25.33;;;8.10;75.40;;;;;;5083895;28;20176;-80
2021/11/16 03:52:56;;;;;;;61.88;25.75;;;7.90;75.70;;;;;;5082910;28;20179;-80
2021/11/16 03:55:28;;;;;;;64.47;26.15;;;7.90;76.00;;;;;;5081687;28;20291;-81
2021/11/16 03:57:55;;;;;;;74.10;29.77;;;7.80;76.00;;;;;;5110406;28;20267;-81
2021/11/16 04:00:25;;;;;;;61.17;24.55;;;8.00;76.10;;;;;;5085176;28;20207;-82
2021/11/16 04:02:51;;;;;;;57.35;26.75;;;8.00;75.90;;;;;;5079971;28;20192;-81
2021/11/16 04:05:17;;;;;;;63.13;26.20;;;8.00;75.90;;;;;;5096048;28;20281;-81
2021/11/16 04:07:43;;;;;;;70.65;25.88;;;8.00;75.80;;;;;;5083572;28;20204;-81
2021/11/16 04:10:12;;;;;;;61.97;29.10;;;8.10;76.10;;;;;;5088424;28;20172;-81
2021/11/16 04:12:40;;;;;;;72.55;29.63;;;8.20;76.20;;;;;;5095877;28;20183;-82
2021/11/16 04:15:08;;;;;;;81.82;27.85;;;7.90;75.90;;;;;;5082395;28;20197;-81
2021/11/16 04:17:36;;;;;;;68.25;27.92;;;7.70;76.50;;;;;;5092631;28;20197;-81
2021/11/16 04:20:04;;;;;;;68.68;29.08;;;7.90;76.60;;;;;;5086845;28;20169;-80
2021/11/16 04:22:30;;;;;;;66.53;28.58;;;8.00;76.30;;;;;;5086675;28;20252;-81
2021/11/16 04:24:56;;;;;;;62.15;28.35;;;8.00;76.50;;;;;;5084412;28;20290;-82
2021/11/16 04:27:21;;;;;;;68.73;28.17;;;7.90;76.40;;;;;;5086243;28;20247;-81
2021/11/16 04:29:47;;;;;;;65.40;28.20;;;8.10;76.00;;;;;;5097262;28;20184;-80
2021/11/16 04:32:13;;;;;;;69.93;28.00;;;8.00;75.70;;;;;;5084377;28;20656;-81
2021/11/16 04:34:39;;;;;;;65.30;28.95;;;8.00;75.90;;;;;;5076789;28;20526;-81
2021/11/16 04:37:04;;;;;;;61.97;28.20;;;8.00;75.90;;;;;;5087806;28;20251;-81
2021/11/16 04:39:30;;;;;;;64.30;26.87;;;8.00;76.70;;;;;;5081362;28;20200;-81
2021/11/16 04:41:56;;;;;;;71.43;28.58;;;7.90;76.50;;;;;;5094851;28;20195;-81
2021/11/16 04:44:22;;;;;;;62.37;26.40;;;8.10;76.20;;;;;;5097774;28;20227;-81
2021/11/16 04:46:48;;;;;;;66.17;27.67;;;8.00;75.80;;;;;;5087378;28;20180;-81
2021/11/16 04:49:32;;;;;;;59.77;26.20;;;8.10;75.90;;;;;;5085283;28;20473;-81
2021/11/16 04:59:51;;;;;;;71.10;28.90;;;7.70;76.80;;;;;;5081469;28;20260;-81
2021/11/16 05:05:21;;;;;;;79.35;28.48;;;7.90;77.70;;;;;;5006499;28;20194;-82
2021/11/16 05:07:56;;;;;;;67.20;28.65;;;7.90;76.20;;;;;;5065225;28;20211;-80
2021/11/16 05:10:23;;;;;;;71.55;27.98;;;8.00;75.90;;;;;;5083500;28;20164;-81
2021/11/16 05:12:49;;;;;;;67.88;28.33;;;7.90;76.00;;;;;;5100054;28;20214;-82
2021/11/16 05:15:20;;;;;;;70.23;27.60;;;8.00;75.90;;;;;;5097946;28;20196;-81
2021/11/16 05:17:47;;;;;;;59.13;27.13;;;7.80;76.10;;;;;;5098543;28;20414;-81
2021/11/16 05:20:14;;;;;;;67.63;27.95;;;7.80;76.60;;;;;;5092459;28;20229;-81
2021/11/16 05:22:46;;;;;;;74.38;29.23;;;7.70;76.60;;;;;;5100297;28;20231;-81
2021/11/16 05:25:12;;;;;;;68.10;28.27;;;7.70;76.70;;;;;;5087465;28;20204;-81
2021/11/16 05:27:39;;;;;;;60.65;24.90;;;7.60;76.40;;;;;;5084911;28;20638;-81
2021/11/16 05:30:09;;;;;;;61.83;26.85;;;7.50;76.70;;;;;;5080292;28;20265;-81
2021/11/16 05:32:36;;;;;;;65.00;26.00;;;7.50;77.00;;;;;;5079289;28;20173;-81
2021/11/16 05:35:02;;;;;;;71.35;26.40;;;7.50;77.10;;;;;;5087466;28;20208;-81
2021/11/16 05:37:28;;;;;;;69.03;28.17;;;7.60;77.10;;;;;;5088616;28;20206;-81
2021/11/16 05:39:54;;;;;;;65.67;24.63;;;7.60;77.10;;;;;;5079531;28;20181;-81
2021/11/16 05:42:21;;;;;;;63.67;27.43;;;7.50;77.00;;;;;;5097842;28;20999;-82
2021/11/16 05:44:48;;;;;;;79.35;25.10;;;7.60;77.00;;;;;;5089775;28;20528;-81
2021/11/16 05:47:14;;;;;;;61.53;24.50;;;7.60;76.80;;;;;;5090501;28;20188;-81
2021/11/16 05:49:40;;;;;;;64.50;27.30;;;7.70;76.80;;;;;;5090094;28;20187;-81
2021/11/16 05:52:06;;;;;;;82.03;27.77;;;7.70;76.80;;;;;;5090140;28;20430;-81
2021/11/16 05:54:34;;;;;;;64.43;24.40;;;7.80;76.70;;;;;;5079158;28;20679;-81
2021/11/16 05:57:06;;;;;;;63.47;25.90;;;7.70;76.40;;;;;;5086978;28;20191;-81
2021/11/16 05:59:33;;;;;;;67.05;26.67;;;7.70;76.40;;;;;;5069220;28;20190;-80
2021/11/16 06:02:08;;;;;;;69.07;27.73;;;7.70;76.30;;;;;;5088004;28;20224;-81
2021/11/16 06:04:35;;;;;;;78.20;28.10;;;8.00;76.10;;;;;;5097490;28;20199;-82
2021/11/16 06:07:02;;;;;;;74.05;31.65;;;8.10;75.90;;;;;;5092218;28;20184;-82
2021/11/16 06:09:30;;;;;;;76.00;27.60;;;8.30;75.20;;;;;;5100895;28;20300;-82
2021/11/16 06:11:57;;;;;;;62.83;26.70;;;8.60;74.10;;;;;;5104053;28;20709;-81
2021/11/16 06:14:23;;;;;;;65.15;31.38;;;8.60;73.30;;;;;;5100595;28;20242;-81
2021/11/16 06:16:49;;;;;;;64.33;28.73;;;8.50;73.60;;;;;;5086211;28;20180;-82
2021/11/16 06:19:17;;;;;;;75.70;31.37;;;8.50;74.80;;;;;;5083857;28;20189;-81
2021/11/16 06:21:43;;;;;;;64.13;27.02;;;8.30;74.20;;;;;;5102496;28;20263;-82
2021/11/16 06:24:09;;;;;;;74.80;28.30;;;8.30;74.10;;;;;;5077339;28;20239;-82
2021/11/16 06:26:34;;;;;;;77.73;29.47;;;8.20;74.20;;;;;;5077750;28;20191;-82
2021/11/16 06:29:02;;;;;;;68.27;27.90;;;8.30;74.20;;;;;;5073252;28;20459;-81
2021/11/16 06:31:29;;;;;;;68.18;28.15;;;8.20;73.80;;;;;;5097113;28;20179;-81
2021/11/16 06:34:02;;;;;;;67.95;27.83;;;8.00;74.20;;;;;;5099580;28;20240;-81
2021/11/16 06:36:34;;;;;;;73.32;30.25;;;8.00;74.60;;;;;;5086659;28;20164;-81
2021/11/16 06:39:05;;;;;;;76.63;28.83;;;8.10;74.50;;;;;;5080425;28;20192;-81
2021/11/16 06:41:31;;;;;;;67.93;26.70;;;8.10;74.50;;;;;;5098627;28;20195;-81
2021/11/16 06:43:56;;;;;;;72.93;29.00;;;8.30;74.50;;;;;;5092003;28;20223;-81
2021/11/16 06:46:22;;;;;;;68.23;29.80;;;8.60;73.40;;;;;;5102312;28;20180;-82
2021/11/16 06:48:48;;;;;;;70.43;29.83;;;8.70;72.40;;;;;;5094195;28;20195;-82
2021/11/16 06:51:14;;;;;;;73.30;30.60;;;8.60;72.60;;;;;;5093099;28;20164;-81
2021/11/16 06:53:39;;;;;;;68.10;26.80;;;8.60;72.90;;;;;;5106269;28;20199;-82
2021/11/16 06:56:06;;;;;;;63.63;24.63;;;8.60;72.90;;;;;;5103246;28;20438;-82
2021/11/16 06:58:34;;;;;;;52.47;21.60;;;8.50;73.20;;;;;;5107560;28;20176;-82
2021/11/16 07:01:00;;;;;;;56.25;24.02;;;8.70;73.10;;;;;;5083638;28;20184;-82
2021/11/16 07:03:26;;;;;;;57.78;25.08;;;8.60;73.00;;;;;;5090636;28;20389;-83
2021/11/16 07:05:59;;;;;;;58.47;24.57;;;8.60;73.70;;;;;;5082691;28;20189;-82
2021/11/16 07:08:34;;;;;;;70.25;27.20;;;8.50;73.80;;;;;;5089186;28;20800;-82
2021/11/16 07:11:13;;;;;;;63.35;24.95;;;8.50;74.00;;;;;;5093838;28;20550;-82
2021/11/16 07:13:53;;;;;;;61.53;24.90;;;8.80;73.70;;;;;;5080134;28;20572;-82
2021/11/16 07:16:19;;;;;;;57.85;25.73;;;8.70;73.40;;;;;;5082346;28;20220;-80
2021/11/16 07:18:51;;;;;;;64.80;26.90;;;8.50;73.70;;;;;;5083817;28;20184;-81
2021/11/16 07:21:19;;;;;;;72.45;28.13;;;8.50;74.20;;;;;;5086383;28;20471;-81
2021/11/16 07:23:45;;;;;;;71.70;28.88;;;8.40;74.30;;;;;;5087123;28;20279;-81
2021/11/16 07:26:17;;;;;;;70.70;30.00;;;8.30;74.40;;;;;;5076624;28;20203;-81
2021/11/16 07:28:49;;;;;;;83.55;35.30;;;8.20;74.60;;;;;;5077463;28;20192;-81
2021/11/16 07:31:21;;;;;;;64.40;27.67;;;8.30;74.80;;;;;;5075550;28;20583;-81
2021/11/16 07:33:48;;;;;;;68.57;25.67;;;8.50;74.80;;;;;;5073269;28;20270;-81
2021/11/16 07:36:16;;;;;;;66.75;26.92;;;8.70;74.20;;;;;;5077719;28;20179;-82
2021/11/16 07:38:46;;;;;;;67.22;25.63;;;8.80;74.00;;;;;;5081469;28;20640;-82
2021/11/16 07:41:18;;;;;;;58.38;26.50;;;8.80;73.40;;;;;;5079623;28;20318;-82
2021/11/16 07:43:44;;;;;;;66.55;26.55;;;9.00;73.20;;;;;;5078536;28;20219;-82
2021/11/16 07:46:10;;;;;;;66.03;28.20;;;8.90;73.00;;;;;;5078715;28;20845;-81
2021/11/16 07:48:37;;;;;;;69.63;29.20;;;8.70;72.90;;;;;;5095811;28;20465;-81
2021/11/16 07:51:13;;;;;;;74.00;29.42;;;8.80;72.50;;;;;;5096750;28;20225;-81
2021/11/16 07:53:44;;;;;;;71.53;30.20;;;8.90;72.00;;;;;;5095629;28;20195;-81
2021/11/16 07:56:21;;;;;;;73.63;24.95;;;8.90;71.40;;;;;;5097148;28;20266;-81
2021/11/16 07:58:52;;;;;;;59.22;25.83;;;8.50;71.70;;;;;;5099212;28;20652;-80
2021/11/16 08:01:40;;;;;;;63.67;24.90;;;8.70;72.90;;;;;;5096909;28;20176;-81
2021/11/16 08:04:21;;;;;;;85.50;26.30;;;8.70;73.40;;;;;;5096926;28;20287;-81
2021/11/16 08:15:06;;;;;;;62.72;24.98;;;8.70;73.10;;;;;;5094715;28;20212;-82
2021/11/16 08:17:32;;;;;;;58.70;25.98;;;8.80;73.00;;;;;;5073232;28;20203;-82
2021/11/16 08:20:08;;;;;;;65.60;26.25;;;8.60;73.00;;;;;;5099451;28;20210;-81
2021/11/16 08:22:35;;;;;;;51.90;23.73;;;8.60;73.20;;;;;;5102657;28;20271;-82
2021/11/16 08:25:01;;;;;;;73.15;27.23;;;8.60;73.50;;;;;;5105550;28;20259;-81
2021/11/16 08:27:32;;;;;;;71.43;25.65;;;8.70;73.10;;;;;;5097395;28;20187;-81
2021/11/16 08:30:13;;;;;;;63.78;24.27;;;8.40;72.90;;;;;;5104402;28;20185;-82
2021/11/16 08:32:43;;;;;;;56.83;22.17;;;8.10;73.00;;;;;;5100224;28;20188;-81
2021/11/16 08:35:19;;;;;;;61.50;25.67;;;8.40;73.00;;;;;;5083386;28;20212;-81
2021/11/16 08:37:48;;;;;;;64.38;24.75;;;8.50;72.50;;;;;;5094150;28;20229;-81
2021/11/16 08:40:17;;;;;;;72.25;27.60;;;8.60;72.30;;;;;;5092523;28;20264;-82
2021/11/16 08:42:51;;;;;;;62.95;23.92;;;8.40;72.10;;;;;;5085853;28;20180;-81
2021/11/16 08:45:21;;;;;;;78.25;25.77;;;8.40;72.20;;;;;;5081613;28;20200;-81
2021/11/16 08:47:53;;;;;;;72.80;26.05;;;8.50;72.10;;;;;;5080788;28;20176;-82
2021/11/16 08:50:34;;;;;;;58.72;24.65;;;8.50;72.00;;;;;;5090330;28;20192;-83
2021/11/16 08:53:03;;;;;;;62.50;26.98;;;8.40;71.70;;;;;;5095325;28;20206;-82
2021/11/16 08:55:33;;;;;;;63.75;28.00;;;8.20;72.10;;;;;;5105635;28;20200;-83
2021/11/16 08:58:01;;;;;;;73.35;27.25;;;8.10;72.80;;;;;;5090933;28;20299;-83
2021/11/16 09:00:33;;;;;;;62.13;27.83;;;8.30;73.30;;;;;;5079848;28;20553;-82
2021/11/16 09:03:15;;;;;;;66.32;27.77;;;8.30;73.40;;;;;;5086450;28;20184;-82
2021/11/16 09:05:44;;;;;;;65.07;26.50;;;8.10;73.70;;;;;;5090920;28;20280;-81
2021/11/16 09:08:18;;;;;;;65.47;26.13;;;8.20;74.20;;;;;;5078289;28;20254;-82
2021/11/16 09:10:47;;;;;;;63.67;28.48;;;8.20;74.60;;;;;;5079791;28;20670;-82
2021/11/16 09:13:14;;;;;;;64.55;26.15;;;8.20;75.10;;;;;;5077693;28;20204;-82
2021/11/16 09:16:03;;;;;;;73.03;25.75;;;8.50;75.20;;;;;;5087627;28;20262;-82
2021/11/16 09:18:47;;;;;;;62.70;25.42;;;8.50;74.40;;;;;;5079452;28;20563;-82
2021/11/16 09:21:36;;;;;;;67.80;25.50;;;8.50;74.10;;;;;;5083316;28;20180;-82
2021/11/16 09:24:05;;;;;;;62.25;25.27;;;8.70;74.00;;;;;;5078177;28;20193;-81
2021/11/16 09:26:54;;;;;;;64.43;26.73;;;8.70;72.90;;;;;;5085900;28;20187;-82
2021/11/16 09:29:23;;;;;;;57.60;24.25;;;8.40;72.90;;;;;;5082946;28;20193;-81
2021/11/16 09:31:54;;;;;;;61.38;23.40;;;8.40;73.20;;;;;;5087324;28;20173;-82
2021/11/16 09:34:20;;;;;;;64.80;27.88;;;8.60;73.60;;;;;;5086744;28;20189;-82
2021/11/16 09:36:58;;;;;;;63.70;25.43;;;8.60;73.50;;;;;;5085620;28;20197;-81
2021/11/16 09:39:28;;;;;;;79.45;26.80;;;8.80;73.70;;;;;;5079004;28;20234;-81
2021/11/16 09:42:01;;;;;;;67.63;26.15;;;8.70;73.60;;;;;;5079931;28;20605;-82
2021/11/16 09:44:32;;;;;;;73.57;28.20;;;8.70;73.60;;;;;;5077335;28;20225;-82
2021/11/16 09:47:00;;;;;;;69.80;28.52;;;8.80;73.50;;;;;;5062210;28;20196;-80
2021/11/16 09:49:35;;;;;;;66.72;29.08;;;8.90;73.20;;;;;;5079899;28;20195;-81
2021/11/16 09:52:08;;;;;;;73.25;28.55;;;8.90;72.80;;;;;;5093423;28;20176;-81
2021/11/16 09:54:51;;;;;;;68.60;29.95;;;8.70;72.10;;;;;;5100957;28;20604;-82
2021/11/16 09:57:18;;;;;;;66.55;27.40;;;8.80;72.30;;;;;;5100491;28;20211;-81
2021/11/16 09:59:47;;;;;;;70.72;27.90;;;8.60;73.10;;;;;;5098000;28;20430;-81
2021/11/16 10:02:24;;;;;;;63.92;26.60;;;8.70;73.50;;;;;;5097796;28;20176;-81
2021/11/16 10:04:51;;;;;;;78.88;28.55;;;8.80;73.60;;;;;;5097290;28;20199;-82
2021/11/16 10:07:22;;;;;;;75.05;27.10;;;8.90;73.50;;;;;;5099357;28;20195;-82
2021/11/16 10:09:50;;;;;;;59.00;27.48;;;8.70;73.10;;;;;;5097994;28;20259;-82
2021/11/16 10:12:18;;;;;;;57.90;26.65;;;8.80;73.00;;;;;;5097525;28;20179;-81
2021/11/16 10:14:45;;;;;;;67.53;28.35;;;8.70;73.00;;;;;;5098584;28;20196;-82
2021/11/16 10:17:11;;;;;;;64.18;29.45;;;8.60;72.50;;;;;;5096716;28;20184;-81
2021/11/16 10:19:37;;;;;;;69.47;29.83;;;8.40;72.70;;;;;;5099238;28;20164;-81
2021/11/16 10:22:09;;;;;;;78.20;29.77;;;8.10;74.20;;;;;;5106907;28;20187;-81
2021/11/16 10:24:36;;;;;;;75.00;28.73;;;7.90;74.80;;;;;;5120630;28;20848;-81
2021/11/16 10:27:23;;;;;;;62.20;29.80;;;7.90;74.30;;;;;;5119307;28;20354;-81
2021/11/16 10:30:15;;;;;;;67.50;27.40;;;7.80;74.20;;;;;;5110032;28;20234;-81
2021/11/16 10:32:43;;;;;;;62.47;29.13;;;8.10;74.30;;;;;;5117921;28;20605;-81
2021/11/16 10:35:19;;;;;;;69.90;31.13;;;8.10;74.10;;;;;;5120422;27;20195;-82
2021/11/16 10:37:56;;;;;;;78.15;33.63;;;8.00;74.00;;;;;;5119806;28;20186;-81
2021/11/16 10:40:25;;;;;;;82.53;33.58;;;8.20;74.20;;;;;;5119506;28;20691;-82
2021/11/16 10:42:54;;;;;;;80.40;32.95;;;8.30;74.30;;;;;;5117735;28;20186;-82
2021/11/16 10:45:22;;;;;;;87.30;33.38;;;8.20;74.10;;;;;;5117508;28;20276;-81
2021/11/16 10:47:48;;;;;;;83.72;33.28;;;8.20;74.10;;;;;;5119225;28;20654;-81
2021/11/16 10:50:19;;;;;;;78.60;34.50;;;8.40;74.40;;;;;;5118162;28;20187;-82
2021/11/16 10:52:58;;;;;;;76.30;32.20;;;8.40;73.70;;;;;;5100205;28;20551;-82
2021/11/16 10:55:37;;;;;;;68.38;33.42;;;8.50;73.60;;;;;;5097142;28;20282;-82
2021/11/16 10:58:05;;;;;;;67.72;30.17;;;8.60;73.50;;;;;;5097234;28;20180;-82
2021/11/16 11:00:42;;;;;;;77.85;30.95;;;8.70;73.30;;;;;;5097064;28;20180;-82
2021/11/16 11:03:20;;;;;;;63.25;28.55;;;8.70;73.10;;;;;;5097447;28;20626;-81
2021/11/16 11:06:07;;;;;;;86.90;35.03;;;8.60;72.60;;;;;;5097788;28;20184;-81
2021/11/16 11:08:53;;;;;;;88.70;36.05;;;8.70;72.80;;;;;;5098774;28;20199;-82
2021/11/16 11:11:34;;;;;;;85.85;36.10;;;8.80;72.50;;;;;;5099113;28;20275;-82
2021/11/16 11:14:04;;;;;;;91.50;34.63;;;9.20;72.00;;;;;;5098849;28;20203;-82
2021/11/16 11:16:49;;;;;;;92.72;35.88;;;9.00;71.70;;;;;;5098807;28;20176;-82
2021/11/16 11:19:27;;;;;;;76.20;33.63;;;8.90;71.70;;;;;;5099213;28;20292;-82
2021/11/16 11:22:09;;;;;;;74.28;29.80;;;9.00;72.00;;;;;;5090502;28;20269;-82
2021/11/16 11:24:40;;;;;;;75.93;30.70;;;9.30;71.50;;;;;;5103396;28;20232;-82
2021/11/16 11:29:52;;;;;;;67.05;28.75;;;8.90;70.40;;;;;;5110636;28;20206;-82
2021/11/16 11:32:22;;;;;;;85.57;32.00;;;8.80;70.90;;;;;;5097736;28;20160;-81
2021/11/16 11:34:50;;;;;;;81.85;33.17;;;8.90;71.30;;;;;;5098624;28;20192;-81
2021/11/16 11:37:23;;;;;;;85.78;35.28;;;8.90;71.60;;;;;;5099650;28;20704;-82
2021/11/16 11:40:09;;;;;;;77.65;33.40;;;8.80;71.80;;;;;;5099511;28;20584;-81
2021/11/16 11:42:59;;;;;;;94.53;38.15;;;8.90;72.30;;;;;;5103050;28;20188;-82
2021/11/16 11:45:29;;;;;;;87.18;34.83;;;9.10;72.20;;;;;;5090192;28;20271;-82
2021/11/16 11:48:04;;;;;;;94.00;35.85;;;9.30;71.70;;;;;;5104509;28;20258;-82
2021/11/16 11:50:37;;;;;;;92.72;34.90;;;9.20;71.60;;;;;;5114158;28;20220;-82
2021/11/16 11:53:17;;;;;;;78.45;34.33;;;9.30;71.30;;;;;;5114209;28;20182;-83
2021/11/16 11:55:53;;;;;;;93.05;36.55;;;9.20;71.00;;;;;;5110641;28;20213;-83
2021/11/16 11:58:21;;;;;;;89.22;33.25;;;9.00;71.40;;;;;;5097609;28;20187;-83
2021/11/16 12:00:49;;;;;;;91.13;34.72;;;8.80;71.80;;;;;;5098090;28;20237;-83
2021/11/16 12:03:15;;;;;;;96.07;33.42;;;8.80;72.20;;;;;;5077927;28;20279;-81
2021/11/16 12:05:43;;;;;;;72.45;31.55;;;8.90;72.60;;;;;;5099367;28;20179;-83
2021/11/16 12:08:10;;;;;;;79.25;31.15;;;8.90;72.60;;;;;;5100945;28;20225;-83
2021/11/16 12:10:39;;;;;;;68.22;27.58;;;8.90;72.50;;;;;;5101762;28;20199;-82
2021/11/16 12:13:07;;;;;;;76.95;28.60;;;9.10;72.40;;;;;;5103892;28;20195;-83
2021/11/16 12:16:01;;;;;;;70.57;28.42;;;9.20;71.60;;;;;;5100871;28;20586;-82
2021/11/16 12:18:38;;;;;;;75.35;30.13;;;9.20;71.40;;;;;;5101169;28;20199;-83
2021/11/16 12:21:04;;;;;;;75.72;29.38;;;9.20;71.50;;;;;;5100813;28;20239;-83
2021/11/16 12:23:44;;;;;;;73.32;32.92;;;9.00;71.50;;;;;;5128153;28;20199;-83
2021/11/16 12:26:11;;;;;;;69.03;29.38;;;8.90;71.70;;;;;;5130241;28;20175;-83
2021/11/16 12:28:38;;;;;;;64.65;28.10;;;9.00;71.80;;;;;;5133828;28;20233;-83
2021/11/16 12:31:04;;;;;;;59.38;25.65;;;9.30;71.80;;;;;;5118461;28;20174;-82
2021/11/16 12:33:48;;;;;;;69.93;28.30;;;9.30;70.60;;;;;;5115442;28;20266;-82
2021/11/16 12:36:32;;;;;;;76.03;30.02;;;9.40;70.40;;;;;;5112110;28;20207;-82
2021/11/16 12:39:11;;;;;;;66.03;27.75;;;9.40;70.20;;;;;;5110337;28;20259;-83
2021/11/16 12:41:41;;;;;;;69.18;29.30;;;9.10;70.40;;;;;;5105159;28;20179;-82
2021/11/16 12:44:13;;;;;;;66.00;27.77;;;8.90;70.70;;;;;;5097149;28;20200;-83
2021/11/16 12:46:41;;;;;;;77.35;27.42;;;8.80;71.00;;;;;;5083084;28;20205;-83
2021/11/16 12:49:11;;;;;;;63.10;25.25;;;8.90;71.40;;;;;;5104536;28;20658;-82
2021/11/16 12:51:56;;;;;;;65.93;27.10;;;9.00;71.50;;;;;;5102187;28;20215;-82
2021/11/16 12:54:24;;;;;;;70.82;24.70;;;9.00;71.10;;;;;;5101529;28;20200;-82
2021/11/16 12:56:50;;;;;;;75.18;26.25;;;9.10;71.20;;;;;;5103284;28;20270;-81
2021/11/16 12:59:19;;;;;;;65.63;28.88;;;9.10;71.10;;;;;;5107549;28;20171;-83
2021/11/16 13:01:52;;;;;;;69.80;25.63;;;9.00;71.30;;;;;;5113067;28;20203;-81
2021/11/16 13:04:38;;;;;;;68.85;26.52;;;9.10;70.80;;;;;;5111182;28;20200;-82
2021/11/16 13:07:32;;;;;;;66.05;27.45;;;9.30;70.80;;;;;;5123979;28;20211;-83
2021/11/16 13:10:04;;;;;;;69.95;28.02;;;9.00;71.00;;;;;;5138677;28;20202;-81
2021/11/16 13:12:33;;;;;;;69.75;27.50;;;9.00;71.50;;;;;;5131029;28;20179;-81